Flight Track Log - Related Links

Times and Time Zones

All times are in EDT time to prevent confusion due to time zone crossing. See the SKW4796 flight status page for this flight to view local times or setup timezone preferences in your user account.

Time Position Orientation Groundspeed Altitude Reporting Facility
EDT Latitude Longitude Course Direction KTS MPH feet Rate Location/Type
Sat 12:06:51 AM 33.9328 -118.4414 90° East 178 205 1,400  Level Los Angeles Center
Sat 12:07:52 AM 33.8883 -118.5147 234° Southwest 242 278 3,400 2,293 Climbing Los Angeles Center
Sat 12:08:54 AM 33.8214 -118.5539 206° Southwest 276 318 6,100 2,488 Climbing Los Angeles Center
Sat 12:09:55 AM 33.7458 -118.5336 167° South 282 325 8,500 2,000 Climbing Los Angeles Center
Sat 12:10:00 AM 33.6777 -118.4827 101° East  Level FlightAware Approximate
Sat 12:10:57 AM 33.6853 -118.4778 142° Southeast 297 342 10,200  Level Los Angeles Center
Sat 12:11:00 AM 33.6458 -118.3645 116° Southeast  Level FlightAware Approximate
Sat 12:11:58 AM 33.6542 -118.3794 111° Southeast 316 364 12,000  Level Los Angeles Center
Sat 12:12:00 AM 33.6333 -118.2429 90° East  Level FlightAware Approximate
Sat 12:13:11 AM 33.6436 -118.2467 95° East 339 390 14,100  Level Los Angeles Center
Sat 12:14:13 AM 33.6433 -118.1053 90° East 355 409 16,000 1,805 Climbing Los Angeles Center
Sat 12:15:14 AM 33.6436 -117.9817 90° East 369 425 17,800 1,756 Climbing Los Angeles Center
Sat 12:16:16 AM 33.6431 -117.8550 90° East 379 436 19,600 1,610 Climbing Los Angeles Center
Sat 12:17:17 AM 33.6433 -117.7289 90° East 381 438 21,100 1,230 Climbing Los Angeles Center
Sat 12:18:18 AM 33.6436 -117.5947 90° East 397 457 22,100 1,122 Climbing Los Angeles Center
Sat 12:19:20 AM 33.6431 -117.4269 90° East 416 479 23,400 1,122 Climbing Los Angeles Center
Sat 12:20:21 AM 33.6425 -117.2819 90° East 429 494 24,400 984 Climbing Los Angeles Center
Sat 12:21:22 AM 33.6394 -117.1350 91° East 439 505 25,400 1,024 Climbing Los Angeles Center
Sat 12:22:24 AM 33.6322 -116.9861 93° East 445 512 26,500 1,122 Climbing Los Angeles Center
Sat 12:23:25 AM 33.6231 -116.8306 94° East 450 518 27,700 1,180 Climbing Los Angeles Center
Sat 12:24:26 AM 33.6164 -116.6806 93° East 451 519 28,900 1,171 Climbing Los Angeles Center
Sat 12:25:28 AM 33.6092 -116.5328 93° East 444 511 30,100 1,171 Climbing Los Angeles Center
Sat 12:26:29 AM 33.6014 -116.3850 94° East 443 510 31,300 1,230 Climbing Los Angeles Center
Sat 12:27:30 AM 33.5956 -116.2394 93° East 438 504 32,600 1,220 Climbing Los Angeles Center
Sat 12:28:32 AM 33.5861 -116.0942 94° East 434 499 33,800 1,073 Climbing Los Angeles Center
Sat 12:29:33 AM 33.5789 -115.9517 93° East 428 493 34,800 585 Climbing Los Angeles Center
Sat 12:30:35 AM 33.5700 -115.8072 94° East 433 498 35,000 98 Climbing Los Angeles Center
Sat 12:31:36 AM 33.5600 -115.6244 94° East 456 525 35,000  Level Los Angeles Center
Sat 12:32:37 AM 33.5511 -115.4683 94° East 466 536 35,000  Level Los Angeles Center
Sat 12:33:39 AM 33.5408 -115.3131 94° East 468 539 35,000  Level Los Angeles Center
Sat 12:34:40 AM 33.5311 -115.1592 94° East 464 534 35,000  Level Los Angeles Center
Sat 12:35:42 AM 33.5211 -115.0056 94° East 464 534 35,000  Level Los Angeles Center
Sat 12:36:43 AM 33.5122 -114.8508 94° East 466 536 35,000 -49 Level Los Angeles Center
Sat 12:37:44 AM 33.5031 -114.6978 94° East 463 533 34,900 -1,561 Descending Los Angeles Center
Sat 12:38:46 AM 33.4925 -114.5436 95° East 464 534 31,800 -3,268 Descending Los Angeles Center
Sat 12:39:47 AM 33.4817 -114.3858 95° East 477 549 28,200 -3,429 Descending Los Angeles Center
Sat 12:40:31 AM 33.4764 -114.2697 93° East 471 542 25,800 -1,904 Descending Albuquerque Center
Sat 12:41:31 AM 33.4664 -114.1272 95° East 441 507 24,900 -397 Descending Albuquerque Center
Sat 12:42:32 AM 33.4469 -113.9972 100° East 407 468 25,000 49 Climbing Albuquerque Center
Sat 12:43:33 AM 33.4197 -113.8672 104° East 403 464 25,000 -98 Level Albuquerque Center
Sat 12:44:34 AM 33.3956 -113.7403 103° East 395 455 24,800 -1,033 Descending Albuquerque Center
Sat 12:45:35 AM 33.3647 -113.5900 104° East 389 448 22,900 -1,820 Descending Albuquerque Center
Sat 12:46:36 AM 33.3381 -113.4650 104° East 388 447 21,100 -1,721 Descending Albuquerque Center
Sat 12:47:37 AM 33.3119 -113.3392 104° East 388 447 19,400 -1,672 Descending Albuquerque Center
Sat 12:48:38 AM 33.2886 -113.2228 103° East 371 427 17,700 -1,623 Descending Albuquerque Center
Sat 12:49:39 AM 33.2736 -113.1111 99° East 346 398 16,100 -1,475 Descending Albuquerque Center
Sat 12:50:40 AM 33.2758 -113.0036 89° East 328 377 14,700 -1,686 Descending Albuquerque Center
Sat 12:51:40 AM 33.2786 -112.8983 88° East 320 368 12,700 -1,686 Descending Albuquerque Center
Sat 12:52:41 AM 33.2878 -112.8017 84° East 301 346 11,300 -1,377 Descending Albuquerque Center
Sat 12:53:42 AM 33.3197 -112.7158 66° East 284 327 9,900 -787 Descending Albuquerque Center
Sat 12:54:43 AM 33.3492 -112.6356 66° East 270 311 9,700 -934 Descending Albuquerque Center
Sat 12:55:44 AM 33.3778 -112.5428 70° East 276 318 8,000 -1,438 Descending Albuquerque Center
Sat 12:56:44 AM 33.3944 -112.4511 78° East 282 325 6,800 -1,438 Descending Albuquerque Center
Sat 12:57:45 AM 33.4128 -112.3597 76° East 283 326 5,100 -1,377 Descending Albuquerque Center
Sat 12:58:46 AM 33.4306 -112.2697 77° East 280 322 4,000 -639 Descending Albuquerque Center
Sat 12:59:47 AM 33.4414 -112.1886 81° East 243 280 3,800 -197 Descending Albuquerque Center

Login

Don't have an account? Register now (free) for customized features, flight alerts, and more!